Deep River, Connecticut
Current Conditions -  °F | °C
As of 4:15 AM on Sunday 26 Oct 2014 (Local Time) from KSNC Reporting Station
Scattered Clouds Scattered Clouds  
Wind Chill: 54°   Ceiling: Unl
Heat Index: 54°   Visibility: 10mi
Dew Point: 45°   Wind: 14mph
Humidity: 72%   Direction: 310°NW
Pressure: 29.54"   Gusts: 28mph
Location:  41.39°N, 72.44°W
Report Text: KSNC 260815Z AUTO 31012G24KT 10SM SCT075 12/07 A2954 RMK AO2
Loading
Personal Weather Stations






























Interactive Weather Map
Tropical Storm Tracking
New forecast layout! Learn more

10-Day Weather Forecast

Advertisements
Track Severe Weather on mobile